Time;durP1;ratioP1;P1;durP2;ratioP2;P2;SDS_P1;SDS_P2;PMS_P1;PMS_P2;Temp;Humidity;BMP_temperature;BMP_pressure;BME280_temperature;BME280_humidity;BME280_pressure;Samples;Min_cycle;Max_cycle;Signal;HPM_P1;HPM_P2
2023/09/11 00:00:48;;;;;;;;;;;;;;;28.10;38.72;101084.16;5070153;28;1227;-30
2023/09/11 00:03:14;;;;;;;;;;;;;;;28.05;39.15;101087.41;5065417;28;1207;-29
2023/09/11 00:05:39;;;;;;;;;;;;;;;27.99;39.16;101085.44;5073807;28;1206;-30
2023/09/11 00:08:05;;;;;;;;;;;;;;;28.02;38.87;101092.31;5046257;28;1336;-27
2023/09/11 00:10:32;;;;;;;;;;;;;;;28.20;38.57;101083.91;5071340;28;1130;-28
2023/09/11 00:12:59;;;;;;;;;;;;;;;28.06;38.64;101082.84;5070809;28;1312;-27
2023/09/11 00:15:24;;;;;;;;;;;;;;;28.03;39.36;101084.03;5065076;28;1975;-27
2023/09/11 00:17:50;;;;;;;;;;;;;;;28.03;39.15;101084.03;5076872;28;1280;-28
2023/09/11 00:20:16;;;;;;;;;;;;;;;28.04;39.00;101082.19;5077117;28;1055;-31
2023/09/11 00:22:41;;;;;;;;;;;;;;;27.97;39.14;101077.50;5077356;28;1113;-30
2023/09/11 00:25:07;;;;;;;;;;;;;;;28.01;38.80;101079.84;5077199;28;2616;-28
2023/09/11 00:27:32;;;;;;;;;;;;;;;27.95;39.06;101078.69;5076827;28;1054;-31
2023/09/11 00:29:58;;;;;;;;;;;;;;;27.92;39.15;101077.19;5050239;28;850;-27
2023/09/11 00:32:23;;;;;;;;;;;;;;;27.95;39.32;101082.25;5059175;28;1043;-29
2023/09/11 00:34:49;;;;;;;;;;;;;;;27.88;38.94;101070.44;5077005;28;1975;-30
2023/09/11 00:37:14;;;;;;;;;;;;;;;27.99;38.75;101071.91;5077150;28;1102;-28
2023/09/11 00:39:40;;;;;;;;;;;;;;;27.85;39.18;101073.53;5076720;28;1196;-29
2023/09/11 00:42:05;;;;;;;;;;;;;;;27.86;39.17;101072.53;5076585;28;1003;-30
2023/09/11 00:44:31;;;;;;;;;;;;;;;27.89;39.23;101061.34;5070585;28;1087;-30
2023/09/11 00:46:57;;;;;;;;;;;;;;;27.90;38.99;101065.72;5051004;28;1051;-32
2023/09/11 00:49:22;;;;;;;;;;;;;;;27.81;39.06;101062.22;5077071;28;1209;-28
2023/09/11 00:51:50;;;;;;;;;;;;;;;27.84;38.99;101059.16;5059027;28;1098;-29
2023/09/11 00:54:17;;;;;;;;;;;;;;;27.84;38.84;101069.97;5075391;28;2403;-30
2023/09/11 00:56:42;;;;;;;;;;;;;;;27.84;38.89;101066.44;5076606;28;1035;-31
2023/09/11 00:59:08;;;;;;;;;;;;;;;27.86;38.82;101069.81;5076350;28;1193;-27
2023/09/11 01:01:34;;;;;;;;;;;;;;;27.94;39.08;101067.06;5058101;28;1260;-29
2023/09/11 01:03:59;;;;;;;;;;;;;;;27.85;39.33;101068.13;5076332;28;1177;-28
2023/09/11 01:06:25;;;;;;;;;;;;;;;27.81;39.14;101069.50;5058003;28;1147;-29
2023/09/11 01:08:55;;;;;;;;;;;;;;;27.92;38.98;101062.81;5058288;28;1146;-29
2023/09/11 01:11:21;;;;;;;;;;;;;;;27.73;38.94;101060.44;5058231;28;1541;-29
2023/09/11 01:13:46;;;;;;;;;;;;;;;27.66;39.28;101062.13;5045123;28;1902;-29
2023/09/11 01:16:20;;;;;;;;;;;;;;;27.93;38.80;101059.94;5057978;28;1119;-29
2023/09/11 01:19:16;;;;;;;;;;;;;;;27.82;39.04;101060.38;5053455;28;846;-32
2023/09/11 01:21:59;;;;;;;;;;;;;;;27.69;39.31;101058.28;5004509;28;1244;-30
2023/09/11 01:24:31;;;;;;;;;;;;;;;27.72;39.34;101058.75;5076014;28;1902;-29
2023/09/11 01:26:57;;;;;;;;;;;;;;;27.77;39.00;101058.22;5067905;28;1019;-30
2023/09/11 01:29:26;;;;;;;;;;;;;;;27.75;39.11;101054.84;5071035;28;1200;-31
2023/09/11 01:31:51;;;;;;;;;;;;;;;27.63;38.87;101057.09;5076113;28;971;-27
2023/09/11 01:34:17;;;;;;;;;;;;;;;27.86;38.98;101053.59;5058121;28;1906;-28
2023/09/11 01:36:42;;;;;;;;;;;;;;;27.83;38.91;101052.06;5058110;28;1221;-30
2023/09/11 01:39:08;;;;;;;;;;;;;;;27.79;39.07;101052.63;5076051;28;1121;-31
2023/09/11 01:41:34;;;;;;;;;;;;;;;27.64;39.32;101056.09;5075890;28;1031;-29
2023/09/11 01:44:00;;;;;;;;;;;;;;;27.72;39.12;101052.50;5076177;28;1050;-33
2023/09/11 01:46:26;;;;;;;;;;;;;;;27.80;39.08;101055.16;5057955;28;1067;-30
2023/09/11 01:48:51;;;;;;;;;;;;;;;27.70;39.37;101058.09;5075872;28;1015;-28
2023/09/11 01:51:17;;;;;;;;;;;;;;;27.73;38.75;101052.31;5057520;28;1048;-27
2023/09/11 01:53:42;;;;;;;;;;;;;;;27.75;38.67;101049.44;5053042;28;2273;-27
2023/09/11 01:56:08;;;;;;;;;;;;;;;27.74;38.93;101056.69;5057972;28;1086;-30
2023/09/11 01:58:33;;;;;;;;;;;;;;;27.78;38.76;101048.25;5026774;28;1175;-29
2023/09/11 02:01:00;;;;;;;;;;;;;;;27.78;38.44;101051.78;5037648;28;1308;-28
2023/09/11 02:03:26;;;;;;;;;;;;;;;27.77;38.67;101046.56;5052278;28;1087;-30
2023/09/11 02:05:54;;;;;;;;;;;;;;;27.71;39.04;101048.13;5075552;28;1035;-29
2023/09/11 02:08:20;;;;;;;;;;;;;;;27.82;38.91;101052.25;5057530;28;1047;-28
2023/09/11 02:10:46;;;;;;;;;;;;;;;27.74;38.94;101043.19;5075757;28;995;-31
2023/09/11 02:13:11;;;;;;;;;;;;;;;27.74;39.18;101048.59;5076059;28;1031;-30
2023/09/11 02:15:37;;;;;;;;;;;;;;;27.71;38.99;101048.94;5057814;28;1909;-28
2023/09/11 02:18:02;;;;;;;;;;;;;;;27.70;39.13;101049.97;5075314;28;1094;-30
2023/09/11 02:20:28;;;;;;;;;;;;;;;27.72;38.93;101049.81;5075725;28;1031;-30
2023/09/11 02:22:53;;;;;;;;;;;;;;;27.67;38.90;101044.06;5056776;28;1499;-27
2023/09/11 02:25:19;;;;;;;;;;;;;;;27.66;39.42;101048.59;5057517;28;2652;-30
2023/09/11 02:27:44;;;;;;;;;;;;;;;27.63;39.43;101044.41;5065997;28;1023;-30
2023/09/11 02:30:10;;;;;;;;;;;;;;;27.62;39.04;101047.31;5079348;28;1111;-28
2023/09/11 02:32:36;;;;;;;;;;;;;;;27.67;39.10;101046.75;5066161;28;1047;-31
2023/09/11 02:35:01;;;;;;;;;;;;;;;27.69;38.96;101044.75;5061351;28;1979;-29
2023/09/11 02:37:27;;;;;;;;;;;;;;;27.68;39.20;101049.31;5079316;28;1170;-31
2023/09/11 02:39:53;;;;;;;;;;;;;;;27.73;38.55;101046.91;5070938;28;1169;-31
2023/09/11 02:42:18;;;;;;;;;;;;;;;27.79;38.71;101042.66;5064363;28;1092;-27
2023/09/11 02:44:44;;;;;;;;;;;;;;;27.66;39.08;101047.78;5079342;28;1027;-31
2023/09/11 02:47:09;;;;;;;;;;;;;;;27.55;39.53;101047.19;5060813;28;1106;-28
2023/09/11 02:49:35;;;;;;;;;;;;;;;27.68;39.09;101052.00;5061402;28;1054;-31
2023/09/11 02:52:00;;;;;;;;;;;;;;;27.69;39.18;101044.75;5060437;28;1027;-30
2023/09/11 02:54:26;;;;;;;;;;;;;;;27.69;39.21;101048.31;5058496;28;2677;-33
2023/09/11 02:56:51;;;;;;;;;;;;;;;27.71;38.63;101045.44;5078793;28;1190;-29
2023/09/11 02:59:17;;;;;;;;;;;;;;;27.80;38.72;101040.78;5060878;28;1279;-31
2023/09/11 03:01:43;;;;;;;;;;;;;;;27.70;38.69;101041.03;5078395;28;1086;-28
2023/09/11 03:04:08;;;;;;;;;;;;;;;27.61;38.90;101038.34;5053015;28;1102;-28
2023/09/11 03:06:34;;;;;;;;;;;;;;;27.59;38.94;101034.97;5046675;28;1238;-28
2023/09/11 03:08:59;;;;;;;;;;;;;;;27.57;39.22;101038.88;5060456;28;1046;-31
2023/09/11 03:11:25;;;;;;;;;;;;;;;27.74;38.74;101037.78;5046824;28;1438;-31
2023/09/11 03:13:50;;;;;;;;;;;;;;;27.61;39.12;101035.66;5065342;28;1902;-30
2023/09/11 03:16:16;;;;;;;;;;;;;;;27.60;38.40;101035.81;5058421;28;1307;-27
2023/09/11 03:18:47;;;;;;;;;;;;;;;27.67;37.53;101038.66;5061412;28;1340;-27
2023/09/11 03:21:13;;;;;;;;;;;;;;;27.67;36.98;101039.50;5049183;28;1122;-31
2023/09/11 03:23:39;;;;;;;;;;;;;;;27.61;37.91;101040.22;5044352;28;2387;-28
2023/09/11 03:26:12;;;;;;;;;;;;;;;27.64;37.17;101039.88;5060526;28;1329;-29
2023/09/11 03:28:38;;;;;;;;;;;;;;;27.68;37.35;101041.19;5041884;28;1103;-30
2023/09/11 03:31:03;;;;;;;;;;;;;;;27.68;37.19;101038.50;5069826;28;1190;-27
2023/09/11 03:33:29;;;;;;;;;;;;;;;27.78;37.31;101040.16;5078140;28;1978;-29
2023/09/11 03:35:54;;;;;;;;;;;;;;;27.77;36.82;101041.16;5060104;28;1205;-27
2023/09/11 03:38:20;;;;;;;;;;;;;;;26.96;35.11;101046.59;5075897;28;1234;-30
2023/09/11 03:40:46;;;;;;;;;;;;;;;26.56;35.78;101046.53;5047864;28;1253;-36
2023/09/11 03:43:11;;;;;;;;;;;;;;;26.39;35.30;101045.75;5058341;28;1210;-33
2023/09/11 03:45:37;;;;;;;;;;;;;;;26.11;35.84;101048.78;5049007;28;1313;-31
2023/09/11 03:48:03;;;;;;;;;;;;;;;26.02;35.45;101051.47;5051816;28;1253;-33
2023/09/11 03:50:28;;;;;;;;;;;;;;;26.03;35.32;101046.91;5070980;28;1302;-34
2023/09/11 03:52:55;;;;;;;;;;;;;;;25.86;35.37;101046.91;5065638;28;1285;-29
2023/09/11 03:55:20;;;;;;;;;;;;;;;25.84;35.63;101048.91;5051675;28;2287;-31
2023/09/11 03:57:46;;;;;;;;;;;;;;;25.93;35.15;101041.69;5059362;28;1283;-30
2023/09/11 04:00:12;;;;;;;;;;;;;;;26.06;35.80;101054.66;5075566;28;1051;-35
2023/09/11 04:02:41;;;;;;;;;;;;;;;25.66;36.74;101052.59;5076457;28;1261;-32
2023/09/11 04:05:06;;;;;;;;;;;;;;;25.53;36.97;101057.59;5077155;28;1007;-31
2023/09/11 04:07:32;;;;;;;;;;;;;;;23.70;38.40;101051.88;5058288;28;1027;-32
2023/09/11 04:09:58;;;;;;;;;;;;;;;23.42;38.89;101050.06;5059112;28;1136;-32
2023/09/11 04:12:23;;;;;;;;;;;;;;;23.83;37.74;101052.34;5076547;28;1015;-32
2023/09/11 04:14:49;;;;;;;;;;;;;;;24.48;36.51;101062.97;5058698;28;1906;-34
2023/09/11 04:17:14;;;;;;;;;;;;;;;24.93;35.53;101062.94;5077548;28;987;-31
2023/09/11 04:19:40;;;;;;;;;;;;;;;25.34;35.54;101064.94;5076843;28;1126;-29
2023/09/11 04:22:06;;;;;;;;;;;;;;;25.36;35.64;101057.56;5059143;28;1285;-33
2023/09/11 04:24:32;;;;;;;;;;;;;;;25.56;34.96;101060.81;5059180;28;1840;-31
2023/09/11 04:26:57;;;;;;;;;;;;;;;25.61;34.63;101056.78;5058818;28;1127;-31
2023/09/11 04:29:23;;;;;;;;;;;;;;;25.78;35.04;101058.53;5077130;28;1042;-30
2023/09/11 04:31:49;;;;;;;;;;;;;;;25.77;35.07;101058.69;5067067;28;999;-33
2023/09/11 04:34:14;;;;;;;;;;;;;;;25.93;34.85;101057.84;5073187;28;1996;-32
2023/09/11 04:36:40;;;;;;;;;;;;;;;25.83;35.09;101062.56;5059272;28;1139;-32
2023/09/11 04:39:06;;;;;;;;;;;;;;;25.88;34.75;101049.44;5045968;28;1092;-32
2023/09/11 04:41:31;;;;;;;;;;;;;;;25.82;34.99;101064.44;5059165;28;1215;-33
2023/09/11 04:43:57;;;;;;;;;;;;;;;25.88;35.36;101069.16;5058421;28;1185;-31
2023/09/11 04:46:22;;;;;;;;;;;;;;;25.83;35.22;101066.09;5058181;28;1058;-30
2023/09/11 04:48:48;;;;;;;;;;;;;;;25.78;35.06;101063.91;5058233;28;1261;-33
2023/09/11 04:51:14;;;;;;;;;;;;;;;25.88;35.57;101061.06;5076726;28;1074;-34
2023/09/11 04:53:39;;;;;;;;;;;;;;;25.79;35.37;101064.75;5075841;28;2371;-32
2023/09/11 04:56:05;;;;;;;;;;;;;;;25.87;35.79;101058.53;5076087;28;817;-28
2023/09/11 04:58:30;;;;;;;;;;;;;;;26.24;35.58;101065.25;5076785;28;1119;-28
2023/09/11 05:00:56;;;;;;;;;;;;;;;26.48;35.41;101058.19;5046957;28;1386;-27
2023/09/11 05:03:21;;;;;;;;;;;;;;;26.67;35.35;101068.78;5033713;28;1127;-27
2023/09/11 05:05:47;;;;;;;;;;;;;;;26.57;36.53;101069.81;5023665;28;1297;-28
2023/09/11 05:08:13;;;;;;;;;;;;;;;26.56;35.05;101076.22;5034749;28;1186;-31
2023/09/11 05:10:40;;;;;;;;;;;;;;;26.20;35.45;101068.47;5035263;28;1158;-31
2023/09/11 05:13:06;;;;;;;;;;;;;;;26.16;35.42;101070.66;5036465;28;1102;-29
2023/09/11 05:15:31;;;;;;;;;;;;;;;26.18;35.60;101065.94;5034847;28;1979;-32
2023/09/11 05:17:57;;;;;;;;;;;;;;;26.29;35.52;101071.00;5036051;28;976;-33
2023/09/11 05:20:23;;;;;;;;;;;;;;;26.16;35.73;101067.97;5034874;28;1328;-31
2023/09/11 05:22:48;;;;;;;;;;;;;;;26.09;35.98;101061.56;5036492;28;1030;-32
2023/09/11 05:25:14;;;;;;;;;;;;;;;26.06;35.73;101056.53;5036045;28;2529;-31
2023/09/11 05:27:39;;;;;;;;;;;;;;;26.19;35.88;101066.81;5036508;28;1110;-28
2023/09/11 05:30:05;;;;;;;;;;;;;;;26.32;35.54;101068.97;5036177;28;1139;-29
2023/09/11 05:32:32;;;;;;;;;;;;;;;26.28;35.63;101066.63;5035771;28;1023;-30
2023/09/11 05:34:58;;;;;;;;;;;;;;;26.32;35.42;101064.44;5035776;28;1910;-30
2023/09/11 05:37:23;;;;;;;;;;;;;;;26.40;35.57;101069.84;5035877;28;1229;-31
2023/09/11 05:39:49;;;;;;;;;;;;;;;26.48;35.51;101071.69;5036148;28;1031;-28
2023/09/11 05:42:14;;;;;;;;;;;;;;;26.40;35.46;101067.16;5036010;28;1122;-28
2023/09/11 05:44:40;;;;;;;;;;;;;;;26.52;35.22;101073.06;5035182;28;895;-29
2023/09/11 05:47:08;;;;;;;;;;;;;;;26.45;35.53;101079.28;5035674;28;1142;-34
2023/09/11 05:49:34;;;;;;;;;;;;;;;26.56;35.27;101080.78;5036021;28;1473;-31
2023/09/11 05:51:59;;;;;;;;;;;;;;;26.61;35.16;101070.34;5035779;28;1098;-31
2023/09/11 05:54:25;;;;;;;;;;;;;;;26.55;35.35;101077.25;5035673;28;2671;-32
2023/09/11 05:56:51;;;;;;;;;;;;;;;26.60;35.47;101076.72;5035357;28;1089;-32
2023/09/11 05:59:19;;;;;;;;;;;;;;;26.60;35.07;101082.13;5037652;28;1143;-28
2023/09/11 06:01:48;;;;;;;;;;;;;;;27.19;35.89;101083.69;5038318;28;1158;-27
2023/09/11 06:04:13;;;;;;;;;;;;;;;27.56;35.13;101092.09;5039752;28;1148;-30
2023/09/11 06:06:39;;;;;;;;;;;;;;;27.46;34.93;101088.78;5039741;28;1118;-34
2023/09/11 06:09:08;;;;;;;;;;;;;;;27.50;34.70;101099.06;5039455;28;883;-27
2023/09/11 06:11:34;;;;;;;;;;;;;;;27.72;34.95;101091.19;5039949;28;1173;-31
2023/09/11 06:13:59;;;;;;;;;;;;;;;27.91;34.63;101091.72;5039809;28;1957;-28
2023/09/11 06:16:24;;;;;;;;;;;;;;;27.70;35.06;101093.22;5039373;28;1111;-32
2023/09/11 06:18:50;;;;;;;;;;;;;;;27.84;35.32;101099.72;5039940;28;1000;-30
2023/09/11 06:21:16;;;;;;;;;;;;;;;27.88;35.07;101092.09;5039126;28;1138;-28
2023/09/11 06:23:41;;;;;;;;;;;;;;;27.87;35.09;101101.22;5039403;28;2350;-28
2023/09/11 06:26:07;;;;;;;;;;;;;;;27.94;35.39;101098.66;5038885;28;988;-30
2023/09/11 06:28:32;;;;;;;;;;;;;;;27.99;35.22;101091.66;5039272;28;1134;-29
2023/09/11 06:30:59;;;;;;;;;;;;;;;27.83;35.58;101098.03;5026107;28;983;-33
2023/09/11 06:33:27;;;;;;;;;;;;;;;27.71;36.46;101088.66;5038844;28;895;-29
2023/09/11 06:35:52;;;;;;;;;;;;;;;28.06;35.79;101093.66;5039108;28;1048;-30
2023/09/11 06:38:18;;;;;;;;;;;;;;;28.06;35.59;101097.19;5039465;28;1051;-28
2023/09/11 06:40:44;;;;;;;;;;;;;;;28.04;36.00;101106.50;5039214;28;1019;-28
2023/09/11 06:43:09;;;;;;;;;;;;;;;27.98;36.34;101106.22;5038933;28;1014;-28
2023/09/11 06:45:35;;;;;;;;;;;;;;;28.08;36.08;101105.13;5038758;28;1016;-30
2023/09/11 06:48:01;;;;;;;;;;;;;;;28.26;35.99;101106.69;5039136;28;1012;-29
2023/09/11 06:50:27;;;;;;;;;;;;;;;28.38;35.75;101109.81;5039357;28;1158;-27
2023/09/11 06:52:53;;;;;;;;;;;;;;;28.41;35.72;101104.88;5038818;28;1098;-28
2023/09/11 06:55:18;;;;;;;;;;;;;;;28.43;35.51;101107.38;5034523;28;2508;-31
2023/09/11 06:57:54;;;;;;;;;;;;;;;28.34;35.96;101115.56;5038336;28;894;-26
2023/09/11 07:00:19;;;;;;;;;;;;;;;28.34;35.95;101107.47;5031591;28;1091;-26
2023/09/11 07:02:48;;;;;;;;;;;;;;;28.53;35.70;101120.69;5079275;28;1162;-32
2023/09/11 07:05:17;;;;;;;;;;;;;;;28.59;35.28;101125.34;5078161;28;1039;-27
2023/09/11 07:07:43;;;;;;;;;;;;;;;28.62;35.34;101118.72;5079003;28;1362;-32
2023/09/11 07:10:12;;;;;;;;;;;;;;;28.55;35.58;101130.28;5078103;28;983;-30
2023/09/11 07:12:38;;;;;;;;;;;;;;;28.59;35.28;101126.19;5078836;28;1003;-28
2023/09/11 07:15:04;;;;;;;;;;;;;;;28.51;35.56;101122.72;5078475;28;1925;-32
2023/09/11 07:17:29;;;;;;;;;;;;;;;28.46;35.49;101123.28;5067667;28;1011;-30
2023/09/11 07:19:55;;;;;;;;;;;;;;;28.19;36.06;101120.94;5075716;28;1035;-28
2023/09/11 07:22:20;;;;;;;;;;;;;;;28.48;35.71;101122.06;5078626;28;1134;-31
2023/09/11 07:24:46;;;;;;;;;;;;;;;28.22;36.10;101120.56;5071547;28;2380;-28
2023/09/11 07:27:11;;;;;;;;;;;;;;;28.24;36.24;101120.38;5078264;28;969;-28
2023/09/11 07:29:37;;;;;;;;;;;;;;;28.32;35.85;101117.63;5078182;28;1157;-30
2023/09/11 07:32:02;;;;;;;;;;;;;;;28.52;35.69;101117.13;5059610;28;1011;-27
2023/09/11 07:34:28;;;;;;;;;;;;;;;28.33;36.17;101113.91;5078105;28;1913;-28
2023/09/11 07:36:53;;;;;;;;;;;;;;;28.38;36.13;101113.34;5077858;28;1127;-28
2023/09/11 07:39:19;;;;;;;;;;;;;;;28.29;36.06;101114.44;5078529;28;1051;-31
2023/09/11 07:41:45;;;;;;;;;;;;;;;28.47;36.15;101116.84;5078467;28;1094;-31
2023/09/11 07:44:10;;;;;;;;;;;;;;;28.31;36.27;101113.22;5077601;28;979;-26
2023/09/11 07:46:36;;;;;;;;;;;;;;;28.33;36.22;101110.34;5077769;28;1205;-31
2023/09/11 07:49:01;;;;;;;;;;;;;;;28.21;36.36;101113.47;5077848;28;1165;-28
2023/09/11 07:51:27;;;;;;;;;;;;;;;28.28;36.63;101108.16;5078403;28;1129;-32
2023/09/11 07:53:52;;;;;;;;;;;;;;;28.30;36.43;101105.28;5077305;28;1906;-30
2023/09/11 07:56:18;;;;;;;;;;;;;;;28.48;36.28;101115.81;5077700;28;1125;-27
2023/09/11 07:58:43;;;;;;;;;;;;;;;28.45;36.19;101118.88;5074669;28;1074;-27
2023/09/11 08:01:09;;;;;;;;;;;;;;;28.45;36.38;101108.06;5066710;28;1160;-30
2023/09/11 08:03:34;;;;;;;;;;;;;;;28.43;36.33;101108.25;5074708;28;1058;-27
2023/09/11 08:06:00;;;;;;;;;;;;;;;28.42;36.54;101109.28;5067475;28;1118;-29
2023/09/11 08:08:26;;;;;;;;;;;;;;;28.36;36.58;101110.00;5077208;28;1095;-31
2023/09/11 08:10:52;;;;;;;;;;;;;;;28.86;35.62;101109.53;5077962;28;1007;-27
2023/09/11 08:13:17;;;;;;;;;;;;;;;28.69;35.88;101114.25;5077249;28;1070;-28
2023/09/11 08:15:43;;;;;;;;;;;;;;;28.57;36.22;101113.88;5077605;28;1979;-30
2023/09/11 08:18:09;;;;;;;;;;;;;;;28.67;35.75;101105.47;5077224;28;1004;-29
2023/09/11 08:20:35;;;;;;;;;;;;;;;28.59;36.25;101098.28;5076849;28;1143;-25
2023/09/11 08:23:01;;;;;;;;;;;;;;;28.68;36.28;101097.16;5077029;28;1170;-29
2023/09/11 08:25:27;;;;;;;;;;;;;;;28.71;36.16;101101.38;5067065;28;2609;-27
2023/09/11 08:27:52;;;;;;;;;;;;;;;28.81;35.83;101098.41;5073350;28;1084;-30
2023/09/11 08:30:18;;;;;;;;;;;;;;;28.75;35.82;101089.16;5077219;28;1109;-28
2023/09/11 08:32:44;;;;;;;;;;;;;;;28.69;36.07;101090.75;5076802;28;1087;-27
2023/09/11 08:35:10;;;;;;;;;;;;;;;28.78;36.10;101096.06;5076916;28;1910;-26
2023/09/11 08:37:35;;;;;;;;;;;;;;;29.19;34.93;101087.50;5077175;28;983;-28
2023/09/11 08:40:01;;;;;;;;;;;;;;;29.08;35.43;101086.09;5076673;28;983;-32
2023/09/11 08:42:26;;;;;;;;;;;;;;;28.98;35.85;101079.28;5076970;28;1074;-29
2023/09/11 08:44:52;;;;;;;;;;;;;;;28.86;35.87;101077.03;5076289;28;1150;-31
2023/09/11 08:47:18;;;;;;;;;;;;;;;28.95;35.90;101078.59;5058756;28;1300;-29
2023/09/11 08:49:44;;;;;;;;;;;;;;;28.82;36.24;101075.72;5076476;28;1118;-29
2023/09/11 08:52:12;;;;;;;;;;;;;;;28.93;35.71;101072.53;5076168;28;1093;-29
2023/09/11 08:54:37;;;;;;;;;;;;;;;28.87;36.11;101072.44;5076048;28;2581;-33
2023/09/11 08:57:03;;;;;;;;;;;;;;;29.02;35.88;101077.88;5076411;28;1022;-29
2023/09/11 08:59:29;;;;;;;;;;;;;;;29.00;35.63;101082.63;5058297;28;1023;-32
2023/09/11 09:01:54;;;;;;;;;;;;;;;29.01;35.64;101073.50;5075832;28;1149;-29
2023/09/11 09:04:20;;;;;;;;;;;;;;;29.18;35.30;101069.53;5076132;28;1018;-30
2023/09/11 09:06:46;;;;;;;;;;;;;;;29.04;35.85;101065.00;5076345;28;991;-27
2023/09/11 09:09:11;;;;;;;;;;;;;;;29.14;35.38;101065.53;5071209;28;1090;-28
2023/09/11 09:11:37;;;;;;;;;;;;;;;29.22;35.09;101067.31;5076156;28;1078;-29
2023/09/11 09:14:05;;;;;;;;;;;;;;;29.18;35.34;101057.84;5076064;28;1985;-27
2023/09/11 09:16:31;;;;;;;;;;;;;;;29.13;35.42;101058.44;5073354;28;1194;-27
2023/09/11 09:18:57;;;;;;;;;;;;;;;29.28;35.18;101055.69;5056075;28;1220;-29
2023/09/11 09:21:25;;;;;;;;;;;;;;;29.33;34.88;101046.97;5072064;28;1177;-31
2023/09/11 09:23:54;;;;;;;;;;;;;;;29.52;34.60;101041.97;5054901;28;2404;-29
2023/09/11 09:26:21;;;;;;;;;;;;;;;29.54;34.35;101039.94;5073011;28;1123;-28
2023/09/11 09:28:51;;;;;;;;;;;;;;;26.49;39.39;101037.47;5076001;28;1046;-29
2023/09/11 09:31:23;;;;;;;;;;;;;;;20.66;50.08;101027.63;5076189;28;1032;-26
2023/09/11 09:33:53;;;;;;;;;;;;;;;18.56;51.96;101023.06;5075976;28;1977;-31
2023/09/11 09:36:19;;;;;;;;;;;;;;;17.66;52.67;101019.94;5062644;28;1117;-30
2023/09/11 09:38:44;;;;;;;;;;;;;;;17.45;53.57;101015.19;5075893;28;1122;-28
2023/09/11 09:41:10;;;;;;;;;;;;;;;17.07;53.92;101011.66;5075771;28;1193;-29
2023/09/11 09:43:36;;;;;;;;;;;;;;;16.44;54.00;101009.75;5076137;28;1011;-29
2023/09/11 09:46:16;;;;;;;;;;;;;;;16.83;57.91;101003.59;5075523;28;1145;-30
2023/09/11 09:48:41;;;;;;;;;;;;;;;18.25;57.71;100997.91;5076024;28;1185;-29
2023/09/11 09:51:07;;;;;;;;;;;;;;;18.71;58.57;100997.03;5075725;28;1027;-31
2023/09/11 09:53:33;;;;;;;;;;;;;;;18.99;58.88;101007.31;5075955;28;2424;-29
2023/09/11 09:56:01;;;;;;;;;;;;;;;19.16;59.06;101010.50;5075789;28;976;-31
2023/09/11 09:58:30;;;;;;;;;;;;;;;19.29;59.25;101008.53;5075147;28;1090;-30
2023/09/11 10:01:08;;;;;;;;;;;;;;;19.27;59.66;101002.47;5075604;28;1069;-30
2023/09/11 10:03:43;;;;;;;;;;;;;;;19.32;59.68;100994.09;5076037;28;1157;-29
2023/09/11 10:06:09;;;;;;;;;;;;;;;19.33;59.73;100991.28;5076170;28;1011;-30
2023/09/11 10:08:35;;;;;;;;;;;;;;;19.48;59.72;101006.19;5076264;28;1117;-29
2023/09/11 10:11:01;;;;;;;;;;;;;;;19.69;56.47;101006.25;5075364;28;1020;-32
2023/09/11 10:13:27;;;;;;;;;;;;;;;19.74;55.52;101004.03;5075087;28;1067;-32
2023/09/11 10:15:53;;;;;;;;;;;;;;;19.71;55.10;101001.63;5075344;28;1918;-30
2023/09/11 10:18:18;;;;;;;;;;;;;;;19.66;54.78;101007.34;5057636;28;1043;-33
2023/09/11 10:20:44;;;;;;;;;;;;;;;19.74;54.30;101003.19;5075756;28;1042;-29
2023/09/11 10:23:09;;;;;;;;;;;;;;;19.60;54.40;101002.53;5075186;28;1089;-31
2023/09/11 10:25:39;;;;;;;;;;;;;;;19.68;54.24;100999.22;5075415;28;2660;-30
2023/09/11 10:28:06;;;;;;;;;;;;;;;19.63;54.20;100999.59;5057611;28;1267;-33
2023/09/11 10:30:39;;;;;;;;;;;;;;;19.65;53.96;100997.63;5075855;28;1107;-33
2023/09/11 10:33:31;;;;;;;;;;;;;;;19.69;53.80;100982.22;5075735;28;1201;-33
2023/09/11 10:35:59;;;;;;;;;;;;;;;19.74;53.51;100992.50;5066916;28;1915;-32
2023/09/11 10:38:28;;;;;;;;;;;;;;;19.63;53.41;100991.59;5057472;28;1147;-31
2023/09/11 10:40:57;;;;;;;;;;;;;;;19.60;53.66;100988.34;5072462;28;1986;-30
2023/09/11 10:43:22;;;;;;;;;;;;;;;19.68;53.09;100983.22;5066324;28;1031;-29
2023/09/11 10:45:49;;;;;;;;;;;;;;;19.54;53.39;100979.00;5074854;28;1098;-31
2023/09/11 10:48:41;;;;;;;;;;;;;;;19.49;53.58;100986.53;5079296;28;1050;-36
2023/09/11 10:51:06;;;;;;;;;;;;;;;19.58;54.04;100985.78;5068475;28;1286;-30
2023/09/11 10:53:32;;;;;;;;;;;;;;;19.65;55.04;100981.63;5054940;28;1162;-29
2023/09/11 10:55:58;;;;;;;;;;;;;;;19.64;55.72;100979.09;5079276;28;1921;-30
2023/09/11 10:58:25;;;;;;;;;;;;;;;19.57;56.64;100984.94;5055432;28;1283;-31
2023/09/11 11:00:54;;;;;;;;;;;;;;;19.64;56.29;100987.94;5041547;28;1242;-29
2023/09/11 11:03:19;;;;;;;;;;;;;;;19.73;55.98;100978.34;5073738;28;1102;-30
2023/09/11 11:05:45;;;;;;;;;;;;;;;19.64;56.02;100976.41;5060984;28;1056;-33
2023/09/11 11:08:11;;;;;;;;;;;;;;;19.69;55.49;100972.41;5079428;28;1059;-33
2023/09/11 11:10:39;;;;;;;;;;;;;;;21.71;47.39;100995.28;5053742;28;856;-28
2023/09/11 11:13:06;;;;;;;;;;;;;;;21.69;48.04;100975.84;5076691;28;1121;-32
2023/09/11 11:15:32;;;;;;;;;;;;;;;19.62;56.15;100978.38;5077293;28;1906;-33
2023/09/11 11:18:08;;;;;;;;;;;;;;;19.62;57.42;100975.72;5059178;28;1151;-31
2023/09/11 11:20:34;;;;;;;;;;;;;;;19.65;57.96;100960.28;5074776;28;1122;-34
2023/09/11 11:23:07;;;;;;;;;;;;;;;19.83;58.05;100975.75;5078745;28;990;-30
2023/09/11 11:25:32;;;;;;;;;;;;;;;19.68;58.41;100967.19;5062879;28;1086;-30
2023/09/11 11:28:01;;;;;;;;;;;;;;;19.78;58.31;100975.28;5067385;28;1379;-33
2023/09/11 11:30:26;;;;;;;;;;;;;;;19.72;58.65;100970.47;5063669;28;1313;-34
2023/09/11 11:32:52;;;;;;;;;;;;;;;19.89;58.54;100971.69;5078651;28;1082;-31
2023/09/11 11:35:17;;;;;;;;;;;;;;;19.94;58.68;100973.03;5077937;28;1977;-30
2023/09/11 11:37:44;;;;;;;;;;;;;;;20.03;58.46;100973.22;5075319;28;1130;-33
2023/09/11 11:40:09;;;;;;;;;;;;;;;19.82;58.68;100972.22;5058528;28;1166;-30
2023/09/11 11:42:38;;;;;;;;;;;;;;;19.74;59.49;100972.00;5061914;28;1157;-32
2023/09/11 11:45:04;;;;;;;;;;;;;;;19.93;58.76;100966.00;5050541;28;1055;-31
2023/09/11 11:47:31;;;;;;;;;;;;;;;19.82;59.00;100956.19;5071620;28;1139;-30
2023/09/11 11:49:56;;;;;;;;;;;;;;;19.88;58.94;100962.88;5069133;28;1062;-30
2023/09/11 11:52:23;;;;;;;;;;;;;;;19.83;58.49;100967.75;5061366;28;1115;-31
2023/09/11 11:54:48;;;;;;;;;;;;;;;19.77;58.16;100960.25;5051200;28;1910;-31
2023/09/11 11:57:14;;;;;;;;;;;;;;;19.82;57.61;100958.88;5060588;28;999;-31
2023/09/11 11:59:39;;;;;;;;;;;;;;;19.73;57.57;100954.31;5072047;28;852;-31
2023/09/11 12:02:05;;;;;;;;;;;;;;;19.87;57.47;100957.66;5074808;28;1201;-31
2023/09/11 12:04:31;;;;;;;;;;;;;;;21.68;53.31;100955.41;5068108;28;1203;-32
2023/09/11 12:07:00;;;;;;;;;;;;;;;23.58;44.64;100954.59;5054601;28;1078;-30
2023/09/11 12:09:25;;;;;;;;;;;;;;;19.74;54.26;100953.31;5040338;28;1028;-29
2023/09/11 12:11:51;;;;;;;;;;;;;;;19.15;55.30;100950.13;5076427;28;988;-31
2023/09/11 12:14:17;;;;;;;;;;;;;;;19.41;56.31;100949.81;5059955;28;1910;-31
2023/09/11 12:16:43;;;;;;;;;;;;;;;19.47;56.82;100945.81;5063980;28;1047;-29
2023/09/11 12:19:08;;;;;;;;;;;;;;;19.55;57.58;100940.69;5060713;28;1321;-33
2023/09/11 12:21:34;;;;;;;;;;;;;;;19.68;57.92;100938.69;5077078;28;1059;-32
2023/09/11 12:24:00;;;;;;;;;;;;;;;19.73;58.35;100940.97;5077450;28;1138;-29
2023/09/11 12:26:26;;;;;;;;;;;;;;;22.31;51.09;100934.47;5065735;28;1042;-30
2023/09/11 12:28:52;;;;;;;;;;;;;;;21.92;49.69;100938.06;5070415;28;1095;-31
2023/09/11 12:31:19;;;;;;;;;;;;;;;19.41;56.91;100933.81;5070060;28;1055;-32
2023/09/11 12:33:51;;;;;;;;;;;;;;;19.09;58.78;100933.63;5077169;28;1914;-29
2023/09/11 12:36:20;;;;;;;;;;;;;;;19.49;59.52;100939.34;5077166;28;1051;-29
2023/09/11 12:38:45;;;;;;;;;;;;;;;19.61;59.33;100942.84;5076431;28;1027;-31
2023/09/11 12:41:11;;;;;;;;;;;;;;;19.74;57.54;100936.47;5061448;28;1016;-33
2023/09/11 12:43:37;;;;;;;;;;;;;;;19.66;57.05;100937.97;5059529;28;1190;-29